Terminal Aerodrome Forecast
Issued by NWS

Current Version | Previous Version | Text Only | Print | Product List | Glossary On
Versions: 1 2 3 4 5 6 7 8 9 10 11 12 13
731
FTUS45 KRIW 241735
TAFCOD
TAF
KCOD 241735Z 2418/2518 26016G28KT P6SM SCT070
     FM242200 26016G26KT P6SM VCSH BKN070
     FM250100 36012KT P6SM BKN070
     FM250900 VRB05KT P6SM SCT080
     FM251600 32010KT P6SM SCT060 BKN090
      AMD LTD TO CLD VIS AND WIND=

USA.gov is the U.S. government's official web portal to all federal, state and local government web resources and services.